createdAt,value
2022-07-25T00:00:24.655Z,26.16
2022-07-25T00:02:27.015Z,26.12
2022-07-25T00:04:29.205Z,26.05
2022-07-25T00:06:31.138Z,26.02
2022-07-25T00:08:32.682Z,25.99
2022-07-25T00:10:34.298Z,25.96
2022-07-25T00:12:35.930Z,25.94
2022-07-25T00:14:37.709Z,25.92
2022-07-25T00:16:40.155Z,25.86
2022-07-25T00:18:42.239Z,25.83
2022-07-25T00:20:43.981Z,25.79
2022-07-25T00:22:45.875Z,25.77
2022-07-25T00:24:47.593Z,25.75
2022-07-25T00:26:49.335Z,25.74
2022-07-25T00:28:50.924Z,25.69
2022-07-25T00:30:52.805Z,25.67
2022-07-25T00:32:54.406Z,25.65
2022-07-25T00:34:56.158Z,25.61
2022-07-25T00:36:57.733Z,25.59
2022-07-25T00:38:59.560Z,25.58
2022-07-25T00:41:01.421Z,25.54
2022-07-25T00:43:03.685Z,25.50
2022-07-25T00:45:05.914Z,25.48
2022-07-25T00:47:07.678Z,25.45
2022-07-25T00:49:09.289Z,25.41
2022-07-25T00:51:12.036Z,25.38
2022-07-25T00:53:15.018Z,25.36
2022-07-25T00:55:16.805Z,25.33
2022-07-25T00:57:18.426Z,25.30
2022-07-25T00:59:20.050Z,25.30
2022-07-25T01:01:23.001Z,25.25
2022-07-25T01:03:24.735Z,25.25
2022-07-25T01:05:26.493Z,25.21
2022-07-25T01:07:28.494Z,25.19
2022-07-25T01:09:30.826Z,25.18
2022-07-25T01:11:32.460Z,25.13
2022-07-25T01:13:34.770Z,25.11
2022-07-25T01:15:36.632Z,25.07
2022-07-25T01:17:40.909Z,25.06
2022-07-25T01:19:42.431Z,25.03
2022-07-25T01:21:43.980Z,25.04
2022-07-25T01:23:45.652Z,24.99
2022-07-25T01:25:47.374Z,24.96
2022-07-25T01:27:54.884Z,24.95
2022-07-25T01:29:57.338Z,24.91
2022-07-25T01:31:58.893Z,24.89
2022-07-25T01:34:00.413Z,24.85
2022-07-25T01:36:02.059Z,24.85
2022-07-25T01:38:03.611Z,24.82
2022-07-25T01:40:09.114Z,24.78
2022-07-25T01:42:10.848Z,24.78
2022-07-25T01:44:12.496Z,24.75
2022-07-25T01:46:14.116Z,24.73
2022-07-25T01:48:15.697Z,24.71
2022-07-25T01:50:18.985Z,24.69
2022-07-25T01:52:20.600Z,24.67
2022-07-25T01:54:22.154Z,24.64
2022-07-25T01:56:24.211Z,24.63
2022-07-25T01:58:25.785Z,24.62
2022-07-25T02:00:28.156Z,24.61
2022-07-25T02:02:29.675Z,24.59
2022-07-25T02:04:31.485Z,24.59
2022-07-25T02:06:35.372Z,24.57
2022-07-25T02:08:36.940Z,24.52
2022-07-25T02:10:38.715Z,24.51
2022-07-25T02:12:40.291Z,24.51
2022-07-25T02:14:42.488Z,24.49
2022-07-25T02:16:44.071Z,24.47
2022-07-25T02:18:46.065Z,24.45
2022-07-25T02:20:49.397Z,24.43
2022-07-25T02:22:50.940Z,24.44
2022-07-25T02:24:52.589Z,24.41
2022-07-25T02:26:54.411Z,24.37
2022-07-25T02:28:55.899Z,24.38
2022-07-25T02:30:57.590Z,24.35
2022-07-25T02:33:00.176Z,24.34
2022-07-25T02:35:01.758Z,24.32
2022-07-25T02:37:03.507Z,24.30
2022-07-25T02:39:05.244Z,24.27
2022-07-25T02:41:07.385Z,24.23
2022-07-25T02:43:09.500Z,24.21
2022-07-25T02:45:11.245Z,24.19
2022-07-25T02:47:12.953Z,24.19
2022-07-25T02:49:14.713Z,24.17
2022-07-25T02:51:18.567Z,24.14
2022-07-25T02:53:34.174Z,24.13
2022-07-25T02:55:41.922Z,24.11
2022-07-25T02:57:43.760Z,24.11
2022-07-25T02:59:45.357Z,24.07
2022-07-25T03:01:47.055Z,24.06
2022-07-25T03:03:49.109Z,24.05
2022-07-25T03:05:50.856Z,24.01
2022-07-25T03:07:52.417Z,24.00
2022-07-25T03:09:53.921Z,23.98
2022-07-25T03:11:55.543Z,23.97
2022-07-25T03:13:58.025Z,23.93
2022-07-25T03:15:59.624Z,23.93
2022-07-25T03:18:01.443Z,23.91
2022-07-25T03:20:04.684Z,23.89
2022-07-25T03:22:06.437Z,23.85
2022-07-25T03:24:08.337Z,23.81
2022-07-25T03:26:10.316Z,23.78
2022-07-25T03:28:11.839Z,23.78
2022-07-25T03:30:13.509Z,23.76
2022-07-25T03:32:15.272Z,23.74
2022-07-25T03:34:16.988Z,23.71
2022-07-25T03:36:19.428Z,23.70
2022-07-25T03:38:21.021Z,23.69
2022-07-25T03:40:22.660Z,23.67
2022-07-25T03:42:26.704Z,23.66
2022-07-25T03:44:28.512Z,23.63
2022-07-25T03:46:30.225Z,23.62
2022-07-25T03:48:31.990Z,23.60
2022-07-25T03:50:33.851Z,23.60
2022-07-25T03:52:35.790Z,23.59
2022-07-25T03:54:37.332Z,23.58
2022-07-25T03:56:44.711Z,23.59
2022-07-25T03:58:46.215Z,23.57
2022-07-25T04:00:48.810Z,23.54
2022-07-25T04:02:50.836Z,23.55
2022-07-25T04:04:52.341Z,23.55
2022-07-25T04:06:54.182Z,23.54
2022-07-25T04:08:56.158Z,23.54
2022-07-25T04:10:57.766Z,23.54
2022-07-25T04:12:59.366Z,23.56
2022-07-25T04:15:01.226Z,23.57
2022-07-25T04:17:03.336Z,23.57
2022-07-25T04:19:05.659Z,23.56
2022-07-25T04:21:09.031Z,23.57
2022-07-25T04:23:10.900Z,23.58
2022-07-25T04:25:12.525Z,23.58
2022-07-25T04:27:14.205Z,23.58
2022-07-25T04:29:16.184Z,23.59
2022-07-25T04:31:18.128Z,23.60
2022-07-25T04:33:20.951Z,23.62
2022-07-25T04:35:22.883Z,23.61
2022-07-25T04:37:24.567Z,23.63
2022-07-25T04:39:26.171Z,23.65
2022-07-25T04:41:27.862Z,23.65
2022-07-25T04:43:29.547Z,23.68
2022-07-25T04:45:32.810Z,23.68
2022-07-25T04:47:34.712Z,23.69
2022-07-25T04:49:36.953Z,23.73
2022-07-25T04:51:38.588Z,23.76
2022-07-25T04:53:40.165Z,23.77
2022-07-25T04:55:41.713Z,23.79
2022-07-25T04:57:43.382Z,23.79
2022-07-25T04:59:45.057Z,23.81
2022-07-25T05:01:46.815Z,23.83
2022-07-25T05:03:50.309Z,23.85
2022-07-25T05:05:52.307Z,23.85
2022-07-25T05:07:59.015Z,23.86
2022-07-25T05:10:00.975Z,23.90
2022-07-25T05:12:02.936Z,23.94
2022-07-25T05:14:04.906Z,23.96
2022-07-25T05:16:07.275Z,24.00
2022-07-25T05:18:09.093Z,24.03
2022-07-25T05:20:12.274Z,24.08
2022-07-25T05:22:14.413Z,24.11
2022-07-25T05:24:16.229Z,24.16
2022-07-25T05:26:18.057Z,24.21
2022-07-25T05:28:19.901Z,24.26
2022-07-25T05:30:21.730Z,24.31
2022-07-25T05:32:23.414Z,24.39
2022-07-25T05:34:25.148Z,24.44
2022-07-25T05:36:26.831Z,24.51
2022-07-25T05:38:28.310Z,24.57
2022-07-25T05:40:30.070Z,24.70
2022-07-25T05:42:33.055Z,24.78
2022-07-25T05:44:34.724Z,24.88
2022-07-25T05:46:36.465Z,24.97
2022-07-25T05:48:38.113Z,25.09
2022-07-25T05:50:40.686Z,25.19
2022-07-25T05:52:42.791Z,25.32
2022-07-25T05:54:44.390Z,25.44
2022-07-25T05:56:46.135Z,25.58
2022-07-25T05:58:48.008Z,25.71
2022-07-25T06:00:51.094Z,25.84
2022-07-25T06:02:53.355Z,26.00
2022-07-25T06:04:55.143Z,26.17
2022-07-25T06:06:56.933Z,26.32
2022-07-25T06:08:58.891Z,26.49
2022-07-25T06:11:03.872Z,26.67
2022-07-25T06:13:06.622Z,26.85
2022-07-25T06:15:12.633Z,27.01
2022-07-25T06:17:26.902Z,27.20
2022-07-25T06:19:31.028Z,27.37
2022-07-25T06:21:32.648Z,27.54
2022-07-25T06:23:34.273Z,27.73
2022-07-25T06:25:36.370Z,27.92
2022-07-25T06:27:38.926Z,28.12
2022-07-25T06:29:40.493Z,28.30
2022-07-25T06:31:42.574Z,28.49
2022-07-25T06:33:48.893Z,28.68
2022-07-25T06:35:50.574Z,28.86
2022-07-25T06:37:52.355Z,29.06
2022-07-25T06:39:53.854Z,29.23
2022-07-25T06:41:55.552Z,29.41
2022-07-25T06:43:57.105Z,29.57
2022-07-25T06:45:58.653Z,29.74
2022-07-25T06:48:00.304Z,29.87
2022-07-25T06:50:02.386Z,30.01
2022-07-25T06:52:04.769Z,30.17
2022-07-25T06:54:06.784Z,30.31
2022-07-25T06:56:09.892Z,30.44
2022-07-25T06:58:13.701Z,30.57
2022-07-25T07:00:15.869Z,30.73
2022-07-25T07:02:18.017Z,30.85
2022-07-25T07:04:19.989Z,31.00
2022-07-25T07:06:21.570Z,31.11
2022-07-25T07:08:23.687Z,31.23
2022-07-25T07:10:25.944Z,31.33
2022-07-25T07:12:27.713Z,31.44
2022-07-25T07:14:30.024Z,31.54
2022-07-25T07:16:32.380Z,31.64
2022-07-25T07:18:34.476Z,31.72
2022-07-25T07:20:36.097Z,31.82
2022-07-25T07:22:45.156Z,31.88
2022-07-25T07:24:49.201Z,31.99
2022-07-25T07:26:51.948Z,32.09
2022-07-25T07:28:55.377Z,32.17
2022-07-25T07:33:19.080Z,32.36
2022-07-25T07:35:20.910Z,32.46
2022-07-25T07:37:22.562Z,32.55
2022-07-25T07:39:24.182Z,32.65
2022-07-25T07:41:26.145Z,32.76
2022-07-25T07:43:31.968Z,32.85
2022-07-25T07:45:33.848Z,32.96
2022-07-25T07:47:35.561Z,33.05
2022-07-25T07:49:37.360Z,33.15
2022-07-25T07:51:39.129Z,33.25
2022-07-25T07:53:59.431Z,33.37
2022-07-25T07:56:00.982Z,33.48
2022-07-25T07:58:02.849Z,33.58
2022-07-25T08:00:05.639Z,33.67
2022-07-25T08:02:14.288Z,33.76
2022-07-25T08:04:16.360Z,33.85
2022-07-25T08:06:18.359Z,33.96
2022-07-25T08:08:20.507Z,34.07
2022-07-25T08:10:24.829Z,34.17
2022-07-25T08:12:26.448Z,34.29
2022-07-25T08:14:28.339Z,34.38
2022-07-25T08:16:30.074Z,34.47
2022-07-25T08:18:33.119Z,34.60
2022-07-25T08:20:38.335Z,34.71
2022-07-25T08:22:46.456Z,34.81
2022-07-25T08:24:48.142Z,34.92
2022-07-25T08:26:49.737Z,35.03
2022-07-25T08:29:04.989Z,35.14
2022-07-25T08:31:13.107Z,35.28
2022-07-25T08:33:16.202Z,35.39
2022-07-25T08:35:19.565Z,35.51
2022-07-25T08:37:21.465Z,35.65
2022-07-25T08:39:23.226Z,35.77
2022-07-25T08:41:25.234Z,35.88
2022-07-25T08:43:27.215Z,36.00
2022-07-25T08:45:29.055Z,36.13
2022-07-25T08:47:30.934Z,36.26
2022-07-25T08:49:32.974Z,36.38
2022-07-25T08:51:34.994Z,36.50
2022-07-25T08:53:37.219Z,36.60
2022-07-25T08:55:39.708Z,36.71
2022-07-25T08:57:43.852Z,36.83
2022-07-25T08:59:45.523Z,36.92
2022-07-25T09:01:47.241Z,37.04
2022-07-25T09:03:51.457Z,37.17
2022-07-25T09:05:53.287Z,37.28
2022-07-25T09:07:56.458Z,37.37
2022-07-25T09:09:58.717Z,37.48
2022-07-25T09:12:00.748Z,37.58
2022-07-25T09:14:08.316Z,37.69
2022-07-25T09:16:10.736Z,37.78
2022-07-25T09:18:15.934Z,37.88
2022-07-25T09:20:19.527Z,37.98
2022-07-25T09:22:21.251Z,38.08
2022-07-25T09:24:22.986Z,38.18
2022-07-25T09:26:24.730Z,38.28
2022-07-25T09:28:29.453Z,38.38
2022-07-25T09:30:31.249Z,38.47
2022-07-25T09:32:32.795Z,38.57
2022-07-25T09:34:39.838Z,38.67
2022-07-25T09:37:02.610Z,38.78
2022-07-25T09:39:05.640Z,38.91
2022-07-25T09:41:07.975Z,38.99
2022-07-25T09:43:09.960Z,39.09
2022-07-25T09:45:13.434Z,39.20
2022-07-25T09:47:16.445Z,39.30
2022-07-25T09:49:19.267Z,39.42
2022-07-25T09:51:21.234Z,39.52
2022-07-25T09:53:23.157Z,39.63
2022-07-25T09:55:25.126Z,39.76
2022-07-25T09:57:27.403Z,39.86
2022-07-25T09:59:29.016Z,39.96
2022-07-25T10:01:48.444Z,40.06
2022-07-25T10:04:15.639Z,40.18
2022-07-25T10:06:22.105Z,40.30
2022-07-25T10:08:24.667Z,40.41
2022-07-25T10:10:30.592Z,40.49
2022-07-25T10:12:32.506Z,40.58
2022-07-25T10:14:35.589Z,40.68
2022-07-25T10:16:46.767Z,40.75
2022-07-25T10:18:55.924Z,40.83
2022-07-25T10:21:28.651Z,40.89
2022-07-25T10:23:30.836Z,40.98
2022-07-25T10:25:33.253Z,41.09
2022-07-25T10:27:44.620Z,41.16
2022-07-25T10:29:52.660Z,41.26
2022-07-25T10:32:05.293Z,41.33
2022-07-25T10:34:10.286Z,41.42
2022-07-25T10:36:12.610Z,41.49
2022-07-25T10:38:14.315Z,41.56
2022-07-25T10:40:32.221Z,41.61
2022-07-25T10:42:34.416Z,41.69
2022-07-25T10:44:42.143Z,41.71
2022-07-25T10:46:45.069Z,41.74
2022-07-25T10:48:57.668Z,41.74
2022-07-25T10:50:59.492Z,41.76
2022-07-25T10:53:01.698Z,41.82
2022-07-25T10:55:03.483Z,41.84
2022-07-25T10:57:13.765Z,41.90
2022-07-25T10:59:30.300Z,41.92
2022-07-25T11:01:35.628Z,41.98
2022-07-25T11:03:37.489Z,42.00
2022-07-25T11:05:54.621Z,42.03
2022-07-25T11:08:20.675Z,42.08
2022-07-25T11:10:26.174Z,42.13
2022-07-25T11:12:28.177Z,42.20
2022-07-25T11:14:33.251Z,42.25
2022-07-25T11:16:35.166Z,42.35
2022-07-25T11:18:41.601Z,42.42
2022-07-25T11:20:43.256Z,42.49
2022-07-25T11:22:52.329Z,42.53
2022-07-25T11:24:54.201Z,42.59
2022-07-25T11:26:55.794Z,42.64
2022-07-25T11:28:57.504Z,42.68
2022-07-25T11:31:04.604Z,42.69
2022-07-25T11:33:06.447Z,42.73
2022-07-25T11:35:10.003Z,42.78
2022-07-25T11:37:15.070Z,42.80
2022-07-25T11:39:18.975Z,42.82
2022-07-25T11:41:30.919Z,42.84
2022-07-25T11:43:33.044Z,42.89
2022-07-25T11:45:34.912Z,42.88
2022-07-25T11:47:37.123Z,42.89
2022-07-25T11:49:51.181Z,42.89
2022-07-25T11:51:52.964Z,42.93
2022-07-25T11:53:54.482Z,42.98
2022-07-25T11:55:56.397Z,43.01
2022-07-25T11:58:01.293Z,43.04
2022-07-25T12:00:23.473Z,43.04
2022-07-25T12:02:32.635Z,43.08
2022-07-25T12:04:34.279Z,43.12
2022-07-25T12:06:36.189Z,43.17
2022-07-25T12:08:42.765Z,43.22
2022-07-25T12:10:47.644Z,43.26
2022-07-25T12:13:04.114Z,43.28
2022-07-25T12:15:05.995Z,43.30
2022-07-25T12:17:07.648Z,43.31
2022-07-25T12:19:18.172Z,43.31
2022-07-25T12:21:19.697Z,43.31
2022-07-25T12:23:21.990Z,43.31
2022-07-25T12:25:28.879Z,43.30
2022-07-25T12:27:32.400Z,43.30
2022-07-25T12:29:34.235Z,43.32
2022-07-25T12:31:36.459Z,43.36
2022-07-25T12:33:38.483Z,43.42
2022-07-25T12:35:41.746Z,43.46
2022-07-25T12:37:44.571Z,43.52
2022-07-25T12:39:46.450Z,43.58
2022-07-25T12:41:48.022Z,43.66
2022-07-25T12:43:49.818Z,43.69
2022-07-25T12:45:51.645Z,43.74
2022-07-25T12:47:53.723Z,43.77
2022-07-25T12:49:56.299Z,43.81
2022-07-25T12:51:58.422Z,43.83
2022-07-25T12:54:00.088Z,43.86
2022-07-25T12:56:04.437Z,43.90
2022-07-25T12:58:06.400Z,43.93
2022-07-25T13:00:11.494Z,43.97
2022-07-25T13:02:16.508Z,44.00
2022-07-25T13:04:18.207Z,44.02
2022-07-25T13:06:21.006Z,44.05
2022-07-25T13:08:22.735Z,44.07
2022-07-25T13:10:24.460Z,44.10
2022-07-25T13:12:26.204Z,44.11
2022-07-25T13:14:27.972Z,44.13
2022-07-25T13:16:29.904Z,44.13
2022-07-25T13:18:31.791Z,44.13
2022-07-25T13:20:36.008Z,44.14
2022-07-25T13:22:37.911Z,44.14
2022-07-25T13:24:39.471Z,44.14
2022-07-25T13:26:41.126Z,44.13
2022-07-25T13:28:45.605Z,44.11
2022-07-25T13:30:47.768Z,44.11
2022-07-25T13:32:49.468Z,44.11
2022-07-25T13:34:50.930Z,44.11
2022-07-25T13:36:52.722Z,44.11
2022-07-25T13:38:54.296Z,44.09
2022-07-25T13:40:59.078Z,44.07
2022-07-25T13:43:01.284Z,44.04
2022-07-25T13:45:03.551Z,44.03
2022-07-25T13:47:05.527Z,43.99
2022-07-25T13:49:07.722Z,43.96
2022-07-25T13:51:09.552Z,43.91
2022-07-25T13:53:11.313Z,43.86
2022-07-25T13:55:12.835Z,43.82
2022-07-25T13:57:14.592Z,43.80
2022-07-25T13:59:21.215Z,43.76
2022-07-25T14:01:25.377Z,43.71
2022-07-25T14:03:27.118Z,43.66
2022-07-25T14:05:28.808Z,43.56
2022-07-25T14:07:30.627Z,43.47
2022-07-25T14:09:32.303Z,43.41
2022-07-25T14:11:34.101Z,43.31
2022-07-25T14:13:38.649Z,43.20
2022-07-25T14:15:40.488Z,43.10
2022-07-25T14:17:42.258Z,42.98
2022-07-25T14:19:44.782Z,42.87
2022-07-25T14:21:49.401Z,42.78
2022-07-25T14:23:51.432Z,42.69
2022-07-25T14:25:53.580Z,42.61
2022-07-25T14:27:55.486Z,42.51
2022-07-25T14:29:57.536Z,42.43
2022-07-25T14:31:59.380Z,42.32
2022-07-25T14:34:01.105Z,42.21
2022-07-25T14:36:05.798Z,42.09
2022-07-25T14:38:07.476Z,41.98
2022-07-25T14:40:11.106Z,41.85
2022-07-25T14:42:13.378Z,41.71
2022-07-25T14:44:15.098Z,41.59
2022-07-25T14:46:17.257Z,41.46
2022-07-25T14:48:21.241Z,41.32
2022-07-25T14:50:23.331Z,41.17
2022-07-25T14:52:27.977Z,41.01
2022-07-25T14:54:29.651Z,40.87
2022-07-25T14:56:31.436Z,40.74
2022-07-25T14:58:33.657Z,40.61
2022-07-25T15:00:35.538Z,40.47
2022-07-25T15:02:37.255Z,40.32
2022-07-25T15:04:40.775Z,40.22
2022-07-25T15:06:42.378Z,40.10
2022-07-25T15:08:44.895Z,40.01
2022-07-25T15:10:47.023Z,39.92
2022-07-25T15:12:54.318Z,39.86
2022-07-25T15:15:04.600Z,39.76
2022-07-25T15:17:06.250Z,39.69
2022-07-25T15:19:26.078Z,39.65
2022-07-25T15:21:28.210Z,39.62
2022-07-25T15:23:30.717Z,39.56
2022-07-25T15:26:00.676Z,39.53
2022-07-25T15:27:54.168Z,39.50
2022-07-25T15:29:56.002Z,39.47
2022-07-25T15:31:57.776Z,39.45
2022-07-25T15:33:59.425Z,39.41
2022-07-25T15:36:01.623Z,39.35
2022-07-25T15:38:03.984Z,39.28
2022-07-25T15:40:07.182Z,39.21
2022-07-25T15:42:09.238Z,39.13
2022-07-25T15:44:10.881Z,39.03
2022-07-25T15:46:13.304Z,38.94
2022-07-25T15:48:16.263Z,38.86
2022-07-25T15:50:21.077Z,38.78
2022-07-25T15:52:24.901Z,38.68
2022-07-25T15:54:29.586Z,38.62
2022-07-25T15:56:31.518Z,38.55
2022-07-25T15:58:33.104Z,38.48
2022-07-25T16:00:34.874Z,38.45
2022-07-25T16:02:36.555Z,38.39
2022-07-25T16:04:38.948Z,38.33
2022-07-25T16:06:40.734Z,38.27
2022-07-25T16:08:44.864Z,38.22
2022-07-25T16:10:58.760Z,38.12
2022-07-25T16:13:01.031Z,38.04
2022-07-25T16:15:03.149Z,37.96
2022-07-25T16:17:05.781Z,37.88
2022-07-25T16:19:08.802Z,37.81
2022-07-25T16:21:10.771Z,37.72
2022-07-25T16:23:13.914Z,37.63
2022-07-25T16:25:15.914Z,37.55
2022-07-25T16:27:17.635Z,37.42
2022-07-25T16:29:21.847Z,37.36
2022-07-25T16:31:23.689Z,37.30
2022-07-25T16:33:25.538Z,37.27
2022-07-25T16:35:27.252Z,37.23
2022-07-25T16:37:29.037Z,37.22
2022-07-25T16:39:30.667Z,37.20
2022-07-25T16:41:32.566Z,37.19
2022-07-25T16:43:34.265Z,37.19
2022-07-25T16:45:36.484Z,37.18
2022-07-25T16:47:42.656Z,37.13
2022-07-25T16:49:44.569Z,37.11
2022-07-25T16:51:46.586Z,37.08
2022-07-25T16:53:48.629Z,37.04
2022-07-25T16:55:54.041Z,36.98
2022-07-25T16:57:55.837Z,36.88
2022-07-25T16:59:57.683Z,36.81
2022-07-25T17:02:00.167Z,36.74
2022-07-25T17:04:02.470Z,36.70
2022-07-25T17:06:04.449Z,36.67
2022-07-25T17:08:06.062Z,36.62
2022-07-25T17:10:08.669Z,36.58
2022-07-25T17:12:10.324Z,36.56
2022-07-25T17:14:12.247Z,36.50
2022-07-25T17:16:14.176Z,36.47
2022-07-25T17:18:16.099Z,36.39
2022-07-25T17:20:18.676Z,36.37
2022-07-25T17:22:20.608Z,36.33
2022-07-25T17:24:22.108Z,36.31
2022-07-25T17:26:23.929Z,36.30
2022-07-25T17:28:25.987Z,36.27
2022-07-25T17:30:27.607Z,36.24
2022-07-25T17:32:30.231Z,36.21
2022-07-25T17:34:31.908Z,36.20
2022-07-25T17:36:33.970Z,36.19
2022-07-25T17:38:36.989Z,36.16
2022-07-25T17:40:39.089Z,36.12
2022-07-25T17:42:45.115Z,36.10
2022-07-25T17:44:47.305Z,36.07
2022-07-25T17:46:50.443Z,36.06
2022-07-25T17:48:52.233Z,36.04
2022-07-25T17:50:55.007Z,36.04
2022-07-25T17:52:59.676Z,36.01
2022-07-25T17:55:03.923Z,35.99
2022-07-25T17:57:06.218Z,35.93
2022-07-25T17:59:08.731Z,35.88
2022-07-25T18:01:10.808Z,35.85
2022-07-25T18:03:12.837Z,35.80
2022-07-25T18:05:14.738Z,35.76
2022-07-25T18:07:16.750Z,35.74
2022-07-25T18:09:20.304Z,35.71
2022-07-25T18:11:22.201Z,35.67
2022-07-25T18:13:23.888Z,35.65
2022-07-25T18:15:25.941Z,35.64
2022-07-25T18:17:27.844Z,35.57
2022-07-25T18:19:29.550Z,35.55
2022-07-25T18:21:31.234Z,35.52
2022-07-25T18:23:35.008Z,35.48
2022-07-25T18:25:38.150Z,35.44
2022-07-25T18:27:46.160Z,35.40
2022-07-25T18:29:47.772Z,35.37
2022-07-25T18:31:50.425Z,35.32
2022-07-25T18:33:52.173Z,35.28
2022-07-25T18:35:54.282Z,35.25
2022-07-25T18:37:55.845Z,35.22
2022-07-25T18:39:57.433Z,35.18
2022-07-25T18:41:59.064Z,35.15
2022-07-25T18:44:03.225Z,35.12
2022-07-25T18:46:05.015Z,35.09
2022-07-25T18:48:08.319Z,35.05
2022-07-25T18:50:10.727Z,35.02
2022-07-25T18:52:12.473Z,34.98
2022-07-25T18:54:14.326Z,34.95
2022-07-25T18:56:16.759Z,34.84
2022-07-25T18:58:18.617Z,34.73
2022-07-25T19:00:20.753Z,34.59
2022-07-25T19:02:22.567Z,34.43
2022-07-25T19:04:24.122Z,34.31
2022-07-25T19:06:26.095Z,34.20
2022-07-25T19:08:27.974Z,34.11
2022-07-25T19:10:29.747Z,34.03
2022-07-25T19:12:31.777Z,33.94
2022-07-25T19:14:33.576Z,33.85
2022-07-25T19:16:35.373Z,33.80
2022-07-25T19:18:37.300Z,33.73
2022-07-25T19:20:39.490Z,33.68
2022-07-25T19:22:41.405Z,33.60
2022-07-25T19:24:43.629Z,33.51
2022-07-25T19:26:48.242Z,33.46
2022-07-25T19:28:51.215Z,33.36
2022-07-25T19:30:52.997Z,33.31
2022-07-25T19:32:54.580Z,33.23
2022-07-25T19:34:56.238Z,33.17
2022-07-25T19:36:59.292Z,33.10
2022-07-25T19:39:01.358Z,33.06
2022-07-25T19:41:03.182Z,32.97
2022-07-25T19:43:04.933Z,32.89
2022-07-25T19:45:07.100Z,32.84
2022-07-25T19:47:11.856Z,32.79
2022-07-25T19:49:13.800Z,32.73
2022-07-25T19:51:15.637Z,32.67
2022-07-25T19:53:17.350Z,32.62
2022-07-25T19:55:18.892Z,32.59
2022-07-25T19:57:20.503Z,32.56
2022-07-25T19:59:22.062Z,32.52
2022-07-25T20:01:23.844Z,32.48
2022-07-25T20:03:25.448Z,32.46
2022-07-25T20:05:27.240Z,32.42
2022-07-25T20:07:30.328Z,32.39
2022-07-25T20:09:33.584Z,32.34
2022-07-25T20:11:38.212Z,32.31
2022-07-25T20:13:40.108Z,32.26
2022-07-25T20:15:41.662Z,32.23
2022-07-25T20:17:43.556Z,32.18
2022-07-25T20:19:45.158Z,32.16
2022-07-25T20:21:47.344Z,32.11
2022-07-25T20:23:49.328Z,32.09
2022-07-25T20:25:51.284Z,32.07
2022-07-25T20:27:53.084Z,32.01
2022-07-25T20:29:54.792Z,31.96
2022-07-25T20:31:56.681Z,31.89
2022-07-25T20:33:58.230Z,31.86
2022-07-25T20:36:00.244Z,31.83
2022-07-25T20:38:09.301Z,31.79
2022-07-25T20:40:12.130Z,31.72
2022-07-25T20:42:13.906Z,31.68
2022-07-25T20:44:15.606Z,31.64
2022-07-25T20:46:17.177Z,31.59
2022-07-25T20:48:19.006Z,31.54
2022-07-25T20:50:20.837Z,31.51
2022-07-25T20:52:22.510Z,31.47
2022-07-25T20:54:24.184Z,31.43
2022-07-25T20:56:25.790Z,31.38
2022-07-25T20:58:27.442Z,31.32
2022-07-25T21:00:30.558Z,31.30
2022-07-25T21:02:33.400Z,31.25
2022-07-25T21:04:35.310Z,31.21
2022-07-25T21:06:37.163Z,31.17
2022-07-25T21:08:39.130Z,31.13
2022-07-25T21:10:40.923Z,31.08
2022-07-25T21:12:42.828Z,31.06
2022-07-25T21:14:44.372Z,31.01
2022-07-25T21:16:45.977Z,30.98
2022-07-25T21:18:47.948Z,30.93
2022-07-25T21:20:49.531Z,30.92
2022-07-25T21:22:51.478Z,30.87
2022-07-25T21:24:53.771Z,30.84
2022-07-25T21:26:55.298Z,30.80
2022-07-25T21:28:56.986Z,30.77
2022-07-25T21:30:58.807Z,30.72
2022-07-25T21:33:00.373Z,30.69
2022-07-25T21:35:02.117Z,30.67
2022-07-25T21:37:03.686Z,30.64
2022-07-25T21:39:05.467Z,30.60
2022-07-25T21:41:07.600Z,30.57
2022-07-25T21:43:13.007Z,30.53
2022-07-25T21:45:14.966Z,30.51
2022-07-25T21:47:16.903Z,30.49
2022-07-25T21:49:42.034Z,30.47
2022-07-25T21:51:44.681Z,30.42
2022-07-25T21:53:47.822Z,30.38
2022-07-25T21:55:49.374Z,30.33
2022-07-25T21:57:51.545Z,30.30
2022-07-25T21:59:53.287Z,30.27
2022-07-25T22:01:54.716Z,30.25
2022-07-25T22:03:56.363Z,30.24
2022-07-25T22:05:57.953Z,30.19
2022-07-25T22:07:59.563Z,30.14
2022-07-25T22:10:01.211Z,30.15
2022-07-25T22:12:02.720Z,30.11
2022-07-25T22:14:04.671Z,30.08
2022-07-25T22:16:06.597Z,30.04
2022-07-25T22:18:08.812Z,30.01
2022-07-25T22:20:11.008Z,29.97
2022-07-25T22:22:12.828Z,29.95
2022-07-25T22:24:14.573Z,29.92
2022-07-25T22:26:16.164Z,29.90
2022-07-25T22:28:17.724Z,29.86
2022-07-25T22:30:19.805Z,29.83
2022-07-25T22:32:21.499Z,29.80
2022-07-25T22:34:23.353Z,29.77
2022-07-25T22:36:24.934Z,29.74
2022-07-25T22:38:26.585Z,29.72
2022-07-25T22:40:28.142Z,29.70
2022-07-25T22:42:29.654Z,29.65
2022-07-25T22:44:31.440Z,29.63
2022-07-25T22:46:33.137Z,29.61
2022-07-25T22:48:34.803Z,29.57
2022-07-25T22:50:36.584Z,29.52
2022-07-25T22:52:38.143Z,29.49
2022-07-25T22:54:39.902Z,29.46
2022-07-25T22:56:41.465Z,29.43
2022-07-25T22:58:43.003Z,29.40
2022-07-25T23:00:44.667Z,29.39
2022-07-25T23:02:46.142Z,29.33
2022-07-25T23:04:47.939Z,29.30
2022-07-25T23:06:50.665Z,29.27
2022-07-25T23:08:52.904Z,29.25
2022-07-25T23:10:55.497Z,29.23
2022-07-25T23:12:57.180Z,29.19
2022-07-25T23:14:58.905Z,29.15
2022-07-25T23:17:20.240Z,29.12
2022-07-25T23:19:22.119Z,29.08
2022-07-25T23:21:27.743Z,29.04
2022-07-25T23:23:29.275Z,29.01
2022-07-25T23:25:30.905Z,28.99
2022-07-25T23:27:34.901Z,28.97
2022-07-25T23:29:37.425Z,28.93
2022-07-25T23:31:39.755Z,28.91
2022-07-25T23:33:41.474Z,28.87
2022-07-25T23:35:43.422Z,28.86
2022-07-25T23:37:45.934Z,28.82
2022-07-25T23:39:47.537Z,28.80
2022-07-25T23:41:49.182Z,28.77
2022-07-25T23:43:56.686Z,28.75
2022-07-25T23:45:59.465Z,28.71
2022-07-25T23:48:03.852Z,28.67
2022-07-25T23:50:06.084Z,28.65
2022-07-25T23:52:08.827Z,28.64
2022-07-25T23:54:10.442Z,28.61
2022-07-25T23:56:13.472Z,28.58
2022-07-25T23:58:16.621Z,28.54
